createdAt,value
2023-03-30T00:00:00.824Z,7.6
2023-03-30T00:05:00.915Z,7.6
2023-03-30T00:10:00.868Z,7.6
2023-03-30T00:15:00.723Z,7.6
2023-03-30T00:20:00.898Z,7.5
2023-03-30T00:25:00.904Z,7.6
2023-03-30T00:30:00.768Z,7.5
2023-03-30T00:35:00.866Z,7.6
2023-03-30T00:40:00.860Z,7.6
2023-03-30T00:45:00.830Z,7.7
2023-03-30T00:50:00.737Z,7.7
2023-03-30T00:55:00.747Z,7.7
2023-03-30T01:00:00.779Z,7.7
2023-03-30T01:10:00.687Z,7.6
2023-03-30T01:15:00.785Z,7.6
2023-03-30T01:20:00.875Z,7.7
2023-03-30T01:25:00.728Z,7.6
2023-03-30T01:30:00.770Z,7.6
2023-03-30T01:35:00.794Z,7.5
2023-03-30T01:40:00.779Z,7.6
2023-03-30T01:45:00.783Z,7.7
2023-03-30T01:50:00.684Z,7.6
2023-03-30T01:55:00.852Z,7.7
2023-03-30T02:00:00.741Z,7.7
2023-03-30T02:05:00.886Z,7.9
2023-03-30T02:10:00.718Z,7.9
2023-03-30T02:15:00.829Z,8
2023-03-30T02:20:00.782Z,8
2023-03-30T02:25:00.767Z,8
2023-03-30T02:30:00.761Z,8.1
2023-03-30T02:35:00.768Z,8.1
2023-03-30T02:40:00.770Z,8.3
2023-03-30T02:45:00.758Z,8.2
2023-03-30T02:50:00.831Z,8.2
2023-03-30T02:55:00.787Z,8.2
2023-03-30T03:00:00.749Z,8.3
2023-03-30T03:05:00.783Z,8.3
2023-03-30T03:10:00.773Z,8.3
2023-03-30T03:15:00.749Z,8.3
2023-03-30T03:20:00.821Z,8.3
2023-03-30T03:25:00.690Z,8.2
2023-03-30T03:30:00.760Z,8.2
2023-03-30T03:35:00.782Z,8.3
2023-03-30T03:40:00.813Z,8.3
2023-03-30T03:45:00.673Z,8.2
2023-03-30T03:50:00.709Z,8.2
2023-03-30T03:55:00.728Z,8.2
2023-03-30T04:00:00.762Z,8.3
2023-03-30T04:05:00.797Z,8.3
2023-03-30T04:10:00.735Z,8.3
2023-03-30T04:15:00.859Z,8.3
2023-03-30T04:20:00.756Z,8.2
2023-03-30T04:25:00.720Z,8.2
2023-03-30T04:35:00.734Z,8.1
2023-03-30T04:40:00.798Z,8.2
2023-03-30T04:45:00.792Z,8.1
2023-03-30T04:50:00.803Z,8.1
2023-03-30T04:55:00.787Z,8.1
2023-03-30T05:00:00.883Z,8.1
2023-03-30T05:05:00.937Z,8.1
2023-03-30T05:10:00.900Z,8
2023-03-30T05:15:00.792Z,8
2023-03-30T05:20:00.799Z,8
2023-03-30T05:25:00.792Z,7.9
2023-03-30T05:30:00.735Z,7.9
2023-03-30T05:35:00.871Z,7.9
2023-03-30T05:40:00.812Z,8
2023-03-30T05:45:00.763Z,8
2023-03-30T05:50:00.733Z,8
2023-03-30T05:55:00.696Z,8
2023-03-30T06:00:00.729Z,8
2023-03-30T06:05:00.786Z,8.1
2023-03-30T06:10:00.752Z,8.1
2023-03-30T06:20:00.780Z,8.1
2023-03-30T06:25:00.793Z,8.1
2023-03-30T06:30:00.744Z,8.2
2023-03-30T06:35:00.737Z,8.3
2023-03-30T06:45:00.732Z,8.3
2023-03-30T06:50:00.772Z,8.2
2023-03-30T06:55:00.745Z,8
2023-03-30T07:00:00.818Z,8
2023-03-30T07:05:00.737Z,8.1
2023-03-30T07:10:00.834Z,8.1
2023-03-30T07:15:00.806Z,8.1
2023-03-30T07:20:00.709Z,8.2
2023-03-30T07:25:00.815Z,8.2
2023-03-30T07:30:07.444Z,8.3
2023-03-30T07:35:00.673Z,8.5
2023-03-30T07:40:00.843Z,8.5
2023-03-30T07:45:00.696Z,8.5
2023-03-30T07:50:00.761Z,8.6
2023-03-30T07:55:00.693Z,8.7
2023-03-30T08:00:00.724Z,8.8
2023-03-30T08:05:00.917Z,8.8
2023-03-30T08:10:00.743Z,9
2023-03-30T08:15:00.870Z,9
2023-03-30T08:20:00.774Z,9.1
2023-03-30T08:25:00.763Z,8.9
2023-03-30T08:30:00.706Z,8.8
2023-03-30T08:35:00.695Z,8.8
2023-03-30T08:40:00.827Z,8.6
2023-03-30T08:45:00.803Z,8.5
2023-03-30T08:50:00.712Z,8.7
2023-03-30T08:55:00.740Z,8.7
2023-03-30T09:00:00.764Z,8.6
2023-03-30T09:10:00.757Z,8.5
2023-03-30T09:15:00.831Z,8.4
2023-03-30T09:20:00.756Z,8.4
2023-03-30T09:25:00.754Z,8.4
2023-03-30T09:30:00.726Z,8.1
2023-03-30T09:35:00.765Z,8.2
2023-03-30T09:40:00.770Z,8
2023-03-30T09:45:00.774Z,8
2023-03-30T09:50:00.711Z,8.1
2023-03-30T09:55:00.709Z,8.2
2023-03-30T10:05:00.771Z,8.3
2023-03-30T10:10:00.756Z,8.3
2023-03-30T10:15:00.692Z,8.4
2023-03-30T10:20:11.335Z,8.4
2023-03-30T10:25:00.763Z,8.4
2023-03-30T10:30:00.791Z,8.5
2023-03-30T10:35:00.867Z,8.6
2023-03-30T10:40:00.825Z,8.6
2023-03-30T10:45:00.819Z,8.7
2023-03-30T10:50:00.785Z,8.7
2023-03-30T10:55:00.813Z,8.7
2023-03-30T11:00:00.828Z,8.8
2023-03-30T11:05:00.769Z,8.8
2023-03-30T11:10:00.773Z,8.9
2023-03-30T11:15:00.720Z,8.9
2023-03-30T11:20:00.773Z,9
2023-03-30T11:25:00.763Z,9
2023-03-30T11:30:00.772Z,9
2023-03-30T11:35:00.756Z,8.9
2023-03-30T11:40:00.758Z,8.9
2023-03-30T11:45:00.751Z,9.1
2023-03-30T11:50:00.790Z,9.1
2023-03-30T11:55:03.843Z,9
2023-03-30T12:00:00.912Z,8.9
2023-03-30T12:05:00.764Z,8.8
2023-03-30T12:10:03.280Z,8.8
2023-03-30T12:15:00.838Z,8.8
2023-03-30T12:20:00.762Z,8.6
2023-03-30T12:25:00.805Z,8.7
2023-03-30T12:30:03.400Z,8.8
2023-03-30T12:35:00.740Z,8.8
2023-03-30T12:40:01.100Z,8.7
2023-03-30T12:45:00.856Z,8.6
2023-03-30T12:50:00.897Z,8.6
2023-03-30T12:55:00.754Z,8.6
2023-03-30T13:00:00.844Z,8.6
2023-03-30T13:05:00.858Z,8.5
2023-03-30T13:10:01.894Z,8.5
2023-03-30T13:15:00.713Z,8.4
2023-03-30T13:20:00.798Z,8.4
2023-03-30T13:25:00.827Z,8.2
2023-03-30T13:30:00.812Z,8
2023-03-30T13:35:06.522Z,7.9
2023-03-30T13:40:00.926Z,7.9
2023-03-30T13:45:00.715Z,7.9
2023-03-30T13:50:00.807Z,7.8
2023-03-30T13:55:00.949Z,7.9
2023-03-30T14:00:00.809Z,7.9
2023-03-30T14:05:00.765Z,7.9
2023-03-30T14:10:00.825Z,8
2023-03-30T14:15:00.818Z,7.9
2023-03-30T14:20:00.813Z,7.9
2023-03-30T14:25:00.793Z,8.1
2023-03-30T14:30:00.802Z,8.2
2023-03-30T14:35:00.779Z,8.1
2023-03-30T14:40:00.915Z,8
2023-03-30T14:45:00.852Z,8
2023-03-30T14:55:05.588Z,7.9
2023-03-30T15:00:00.790Z,8
2023-03-30T15:10:00.819Z,7.8
2023-03-30T15:15:00.921Z,7.8
2023-03-30T15:20:00.758Z,7.8
2023-03-30T15:25:00.718Z,7.8
2023-03-30T15:30:02.026Z,7.8
2023-03-30T15:35:00.776Z,7.8
2023-03-30T15:40:00.729Z,7.8
2023-03-30T15:45:00.858Z,7.8
2023-03-30T15:50:00.944Z,7.8
2023-03-30T15:55:00.846Z,7.9
2023-03-30T16:00:00.821Z,7.9
2023-03-30T16:05:00.817Z,7.9
2023-03-30T16:10:00.741Z,7.7
2023-03-30T16:15:00.802Z,7.7
2023-03-30T16:20:00.810Z,7.8
2023-03-30T16:25:00.905Z,7.8
2023-03-30T16:30:00.938Z,7.8
2023-03-30T16:35:00.881Z,7.6
2023-03-30T16:40:00.815Z,7.7
2023-03-30T16:45:00.888Z,7.7
2023-03-30T16:50:00.819Z,7.4
2023-03-30T16:55:00.924Z,7.5
2023-03-30T17:00:00.796Z,7.4
2023-03-30T17:05:00.845Z,7.4
2023-03-30T17:10:00.868Z,7.3
2023-03-30T17:15:00.817Z,7.5
2023-03-30T17:20:00.742Z,7.5
2023-03-30T17:25:00.849Z,7.4
2023-03-30T17:30:00.825Z,7.4
2023-03-30T17:35:00.839Z,7.5
2023-03-30T17:40:00.940Z,7.4
2023-03-30T17:45:00.858Z,7.5
2023-03-30T17:50:00.935Z,7.5
2023-03-30T17:55:00.877Z,7.3
2023-03-30T18:00:00.829Z,7.1
2023-03-30T18:05:00.803Z,7.2
2023-03-30T18:10:00.882Z,7.1
2023-03-30T18:15:00.760Z,7.1
2023-03-30T18:20:00.797Z,7.1
2023-03-30T18:25:00.768Z,7.1
2023-03-30T18:30:00.786Z,7
2023-03-30T18:35:00.790Z,7
2023-03-30T18:45:00.844Z,7.1
2023-03-30T18:50:00.734Z,7
2023-03-30T18:55:00.827Z,7
2023-03-30T19:00:00.937Z,6.9
2023-03-30T19:05:00.804Z,6.9
2023-03-30T19:15:00.759Z,6.8
2023-03-30T19:20:00.797Z,6.9
2023-03-30T19:25:00.790Z,6.9
2023-03-30T19:30:00.898Z,6.9
2023-03-30T19:35:00.832Z,7
2023-03-30T19:40:00.785Z,7
2023-03-30T20:00:00.796Z,7
2023-03-30T20:05:00.881Z,6.9
2023-03-30T20:10:00.785Z,6.9
2023-03-30T20:15:00.780Z,6.9
2023-03-30T20:20:00.842Z,7
2023-03-30T20:25:00.853Z,6.9
2023-03-30T20:30:00.927Z,7
2023-03-30T20:35:00.734Z,7.2
2023-03-30T20:40:02.904Z,7.1
2023-03-30T20:45:01.130Z,6.9
2023-03-30T20:50:00.846Z,6.9
2023-03-30T20:55:00.846Z,6.9
2023-03-30T21:00:00.966Z,6.8
2023-03-30T21:05:00.782Z,6.8
2023-03-30T21:10:00.873Z,6.8
2023-03-30T21:20:00.786Z,6.8
2023-03-30T21:25:00.899Z,6.8
2023-03-30T21:30:00.802Z,6.9
2023-03-30T21:40:00.771Z,6.9
2023-03-30T21:45:00.806Z,6.9
2023-03-30T21:50:00.787Z,6.9
2023-03-30T22:00:00.857Z,7
2023-03-30T22:05:00.766Z,7.1
2023-03-30T22:10:00.779Z,7.1
2023-03-30T22:15:00.824Z,7.1
2023-03-30T22:20:00.760Z,7.1
2023-03-30T22:25:00.844Z,7.2
2023-03-30T22:30:00.853Z,7
2023-03-30T22:35:00.837Z,7.3
2023-03-30T22:40:00.772Z,7.2
2023-03-30T22:45:00.792Z,7.2
2023-03-30T22:50:00.737Z,7.2
2023-03-30T22:55:00.719Z,7.2
2023-03-30T23:00:00.901Z,7.2
2023-03-30T23:05:00.773Z,7
2023-03-30T23:10:00.720Z,7.1
2023-03-30T23:15:00.772Z,7
2023-03-30T23:20:00.737Z,7
2023-03-30T23:25:00.820Z,7
2023-03-30T23:30:00.777Z,7
2023-03-30T23:35:00.880Z,7.1
2023-03-30T23:40:00.736Z,7
2023-03-30T23:45:00.802Z,7.1
2023-03-30T23:50:00.821Z,7
2023-03-30T23:55:00.860Z,7
